Time;durP1;ratioP1;P1;durP2;ratioP2;P2;SDS_P1;SDS_P2;PMS_P1;PMS_P2;Temp;Humidity;BMP_temperature;BMP_pressure;BME280_temperature;BME280_humidity;BME280_pressure;Samples;Min_cycle;Max_cycle;Signal;HPM_P1;HPM_P2
2022/06/06 00:01:15;;;;;;;19.58;18.30;;;16.00;99.90;;;;;;4985108;28;20042;-77
2022/06/06 00:03:42;;;;;;;19.45;18.15;;;16.10;99.90;;;;;;4970536;28;20089;-77
2022/06/06 00:06:19;;;;;;;19.30;18.10;;;16.00;99.90;;;;;;4933882;28;20454;-77
2022/06/06 00:08:48;;;;;;;18.90;17.70;;;16.10;99.90;;;;;;4967512;28;20042;-76
2022/06/06 00:11:15;;;;;;;19.20;17.95;;;16.10;99.90;;;;;;4965782;28;20050;-77
2022/06/06 00:13:44;;;;;;;19.85;18.48;;;16.10;99.90;;;;;;4966200;28;20477;-77
2022/06/06 00:16:13;;;;;;;20.38;19.08;;;16.20;99.90;;;;;;4964838;28;20698;-77
2022/06/06 00:18:43;;;;;;;19.63;18.48;;;16.20;99.90;;;;;;4964093;28;20054;-77
2022/06/06 00:21:12;;;;;;;20.13;18.73;;;16.20;99.90;;;;;;4948704;28;20508;-78
2022/06/06 00:23:40;;;;;;;21.25;19.73;;;16.20;99.90;;;;;;4970313;28;20591;-77
2022/06/06 00:26:13;;;;;;;22.83;21.02;;;16.20;99.90;;;;;;4966632;28;20035;-76
2022/06/06 00:28:44;;;;;;;22.92;21.23;;;16.20;99.90;;;;;;4967417;28;20188;-77
2022/06/06 00:36:44;;;;;;;26.25;23.98;;;16.10;99.90;;;;;;4965955;28;20164;-76
2022/06/06 00:39:14;;;;;;;26.92;24.38;;;16.00;99.90;;;;;;4963361;28;20062;-77
2022/06/06 00:41:46;;;;;;;26.77;24.48;;;16.10;99.90;;;;;;4964625;28;20074;-76
2022/06/06 00:44:23;;;;;;;26.70;24.33;;;16.00;99.90;;;;;;4948115;28;20059;-77
2022/06/06 00:46:58;;;;;;;27.48;25.10;;;16.00;99.90;;;;;;4965517;28;20075;-77
2022/06/06 00:49:40;;;;;;;28.10;25.48;;;15.90;99.90;;;;;;4948590;28;20047;-78
2022/06/06 00:52:23;;;;;;;29.27;26.38;;;15.90;99.90;;;;;;4966571;28;20136;-77
2022/06/06 00:54:54;;;;;;;27.02;24.83;;;16.00;99.90;;;;;;4936213;28;20046;-76
2022/06/06 00:57:28;;;;;;;28.50;26.00;;;15.90;99.90;;;;;;4964822;28;20118;-76
2022/06/06 00:59:55;;;;;;;29.30;26.60;;;15.90;99.90;;;;;;4967530;28;20043;-77
2022/06/06 01:02:22;;;;;;;30.40;27.80;;;15.90;99.90;;;;;;4947126;28;20126;-77
2022/06/06 01:04:50;;;;;;;29.85;27.05;;;15.90;99.90;;;;;;4964101;28;20289;-78
2022/06/06 01:07:17;;;;;;;30.52;27.65;;;15.90;99.90;;;;;;4963854;28;20121;-77
2022/06/06 01:09:44;;;;;;;31.90;28.90;;;15.90;99.90;;;;;;4948449;28;20109;-78
2022/06/06 01:12:14;;;;;;;30.05;27.35;;;16.00;99.90;;;;;;4963731;28;20090;-78
2022/06/06 01:14:48;;;;;;;31.17;28.27;;;16.00;99.90;;;;;;4947728;28;20113;-77
2022/06/06 01:17:19;;;;;;;30.35;27.50;;;16.10;99.90;;;;;;4961132;28;20074;-77
2022/06/06 01:19:56;;;;;;;29.10;26.30;;;16.10;99.90;;;;;;4972523;28;20090;-76
2022/06/06 01:22:42;;;;;;;28.95;26.50;;;16.20;99.90;;;;;;4969668;28;20616;-77
2022/06/06 01:25:17;;;;;;;;;;;16.20;99.90;;;;;;4979083;28;20085;-77
2022/06/06 01:27:53;;;;;;;27.60;25.17;;;16.20;99.90;;;;;;4971674;28;20289;-77
2022/06/06 01:30:29;;;;;;;29.83;26.80;;;16.20;99.90;;;;;;4982410;28;20248;-76
2022/06/06 01:32:59;;;;;;;28.58;26.02;;;16.30;99.90;;;;;;4984199;28;20654;-77
2022/06/06 01:35:33;;;;;;;30.38;27.65;;;16.30;99.90;;;;;;4984504;28;20065;-77
2022/06/06 01:38:00;;;;;;;29.73;26.98;;;16.30;99.90;;;;;;4966848;28;20050;-77
2022/06/06 01:40:51;;;;;;;29.52;26.92;;;16.30;99.90;;;;;;4945473;28;20147;-77
2022/06/06 01:43:24;;;;;;;29.35;26.75;;;16.20;99.90;;;;;;4953597;28;20509;-77
2022/06/06 01:45:57;;;;;;;28.75;26.20;;;16.20;99.90;;;;;;4964311;28;20121;-76
2022/06/06 01:48:33;;;;;;;28.92;26.45;;;16.20;99.90;;;;;;4963944;28;20449;-77
2022/06/06 01:51:07;;;;;;;29.27;26.58;;;16.20;99.90;;;;;;4946983;28;20093;-76
2022/06/06 01:53:37;;;;;;;28.67;26.08;;;16.20;99.90;;;;;;4964204;23;20046;-75
2022/06/06 01:56:08;;;;;;;29.92;27.20;;;16.20;99.90;;;;;;5015199;28;20188;-76
2022/06/06 01:58:35;;;;;;;30.80;27.73;;;16.20;99.90;;;;;;5014561;28;20049;-76
2022/06/06 02:01:03;;;;;;;29.27;26.70;;;16.20;99.90;;;;;;5003970;28;20471;-76
2022/06/06 02:03:34;;;;;;;30.45;27.65;;;16.20;99.90;;;;;;5003619;28;20100;-76
2022/06/06 02:06:05;;;;;;;30.85;27.98;;;16.20;99.90;;;;;;4998407;28;20072;-76
2022/06/06 02:08:32;;;;;;;30.92;27.92;;;16.20;99.90;;;;;;4982720;28;20738;-75
2022/06/06 02:10:59;;;;;;;30.45;27.58;;;16.20;99.90;;;;;;4966630;28;20101;-75
2022/06/06 02:13:26;;;;;;;31.05;27.92;;;16.20;99.90;;;;;;4984505;28;20046;-78
2022/06/06 02:15:53;;;;;;;31.63;28.42;;;16.20;99.90;;;;;;4983177;28;20462;-76
2022/06/06 02:18:19;;;;;;;31.83;28.50;;;16.20;99.90;;;;;;4982542;28;20126;-76
2022/06/06 02:20:46;;;;;;;31.40;28.05;;;16.20;99.90;;;;;;4983150;28;20046;-76
2022/06/06 02:23:13;;;;;;;31.33;28.30;;;16.10;99.90;;;;;;4996488;28;20042;-78
2022/06/06 02:25:40;;;;;;;32.35;28.95;;;16.10;99.90;;;;;;4999112;28;20667;-75
2022/06/06 02:28:08;;;;;;;34.80;29.85;;;16.10;99.90;;;;;;5001527;28;20555;-76
2022/06/06 02:30:36;;;;;;;33.33;29.95;;;16.10;99.90;;;;;;5000552;28;20050;-74
2022/06/06 02:33:04;;;;;;;31.25;28.30;;;16.10;99.90;;;;;;5003655;28;20054;-77
2022/06/06 02:35:37;;;;;;;32.45;28.98;;;16.10;99.90;;;;;;5001802;28;20100;-77
2022/06/06 02:38:04;;;;;;;35.88;29.77;;;15.90;99.90;;;;;;4990944;28;20386;-76
2022/06/06 02:40:31;;;;;;;33.55;29.83;;;15.80;99.90;;;;;;4981639;28;20109;-76
2022/06/06 02:42:59;;;;;;;35.45;30.35;;;15.80;99.90;;;;;;4986981;28;20054;-75
2022/06/06 02:45:26;;;;;;;33.97;27.90;;;15.70;99.90;;;;;;4987869;28;20572;-75
2022/06/06 02:47:56;;;;;;;34.50;29.50;;;15.70;99.90;;;;;;4986567;28;20483;-76
2022/06/06 02:50:26;;;;;;;30.85;27.55;;;15.60;99.90;;;;;;4984910;28;20050;-75
2022/06/06 02:52:53;;;;;;;37.78;30.65;;;15.60;99.90;;;;;;4998073;28;20092;-75
2022/06/06 02:55:21;;;;;;;32.78;29.05;;;15.60;99.90;;;;;;4999856;28;20034;-76
2022/06/06 02:57:50;;;;;;;31.52;28.23;;;15.60;99.90;;;;;;4975081;28;20626;-76
2022/06/06 03:00:26;;;;;;;32.38;28.88;;;15.60;99.90;;;;;;5005080;28;20046;-77
2022/06/06 03:02:54;;;;;;;33.65;28.85;;;15.60;99.90;;;;;;5005333;28;20045;-75
2022/06/06 03:05:21;;;;;;;31.25;28.10;;;15.60;99.90;;;;;;4993897;28;20054;-76
2022/06/06 03:07:47;;;;;;;32.15;28.08;;;15.60;99.90;;;;;;4986045;28;20050;-76
2022/06/06 03:10:33;;;;;;;32.00;28.60;;;15.60;99.90;;;;;;4986762;28;20237;-75
2022/06/06 03:13:39;;;;;;;32.53;29.02;;;15.60;99.90;;;;;;4985167;28;20131;-76
2022/06/06 03:22:33;;;;;;;35.75;30.17;;;15.40;99.90;;;;;;4991911;28;20050;-74
2022/06/06 03:25:16;;;;;;;37.00;32.80;;;15.40;99.90;;;;;;4974210;28;20046;-76
2022/06/06 03:27:50;;;;;;;37.78;32.03;;;15.40;99.90;;;;;;4996833;28;20053;-76
2022/06/06 03:30:26;;;;;;;40.42;32.08;;;15.30;99.90;;;;;;5005623;28;20448;-75
2022/06/06 03:33:13;;;;;;;44.72;33.17;;;15.40;99.90;;;;;;5006484;28;20168;-77
2022/06/06 03:35:54;;;;;;;42.38;32.78;;;15.30;99.90;;;;;;5000600;28;20084;-76
2022/06/06 03:39:04;;;;;;;38.40;32.95;;;15.30;99.90;;;;;;4986646;28;20708;-76
2022/06/06 03:41:56;;;;;;;42.08;33.72;;;15.40;99.90;;;;;;4984614;28;20500;-76
2022/06/06 03:44:50;;;;;;;45.53;34.47;;;15.30;99.90;;;;;;4985601;28;20050;-77
2022/06/06 03:47:22;;;;;;;40.92;31.65;;;15.40;99.90;;;;;;4986042;28;20046;-75
2022/06/06 03:50:32;;;;;;;42.50;32.85;;;15.30;99.90;;;;;;4986503;28;20120;-76
2022/06/06 03:53:08;;;;;;;43.70;34.03;;;15.30;99.90;;;;;;4998166;28;20183;-75
2022/06/06 03:55:53;;;;;;;46.00;35.15;;;15.40;99.90;;;;;;5004279;28;20092;-75
2022/06/06 03:58:22;;;;;;;48.90;36.17;;;15.40;99.90;;;;;;4998128;28;20504;-78
2022/06/06 04:00:50;;;;;;;49.22;35.30;;;15.40;99.90;;;;;;5004596;28;20655;-75
2022/06/06 04:03:18;;;;;;;54.45;37.40;;;15.30;99.90;;;;;;5006004;28;20080;-74
2022/06/06 04:05:46;;;;;;;50.83;36.72;;;15.30;99.90;;;;;;5004220;28;20061;-76
2022/06/06 04:08:13;;;;;;;53.70;37.13;;;15.20;99.90;;;;;;5004740;28;20054;-75
2022/06/06 04:11:18;;;;;;;52.05;37.25;;;15.20;99.90;;;;;;4987693;28;20046;-75
2022/06/06 04:14:08;;;;;;;56.08;36.83;;;15.20;99.90;;;;;;4985223;28;20054;-75
2022/06/06 04:16:57;;;;;;;53.90;37.25;;;15.20;99.90;;;;;;4981090;28;20386;-74
2022/06/06 04:19:44;;;;;;;57.15;37.97;;;15.10;99.90;;;;;;4984340;28;20139;-75
2022/06/06 04:22:31;;;;;;;58.38;38.13;;;15.20;99.90;;;;;;4990223;28;20073;-75
2022/06/06 04:25:12;;;;;;;49.90;37.10;;;15.10;99.90;;;;;;5003772;28;20093;-74
2022/06/06 04:27:47;;;;;;;52.63;36.10;;;15.10;99.90;;;;;;5000627;28;20045;-77
2022/06/06 04:30:42;;;;;;;51.80;34.90;;;15.20;99.90;;;;;;5004605;28;20046;-75
2022/06/06 04:33:25;;;;;;;51.50;34.33;;;15.10;99.90;;;;;;5005367;28;20053;-76
2022/06/06 04:36:02;;;;;;;51.40;35.40;;;15.10;99.90;;;;;;4994846;28;20117;-76
2022/06/06 04:39:04;;;;;;;47.25;33.17;;;15.10;99.90;;;;;;4984267;28;20544;-76
2022/06/06 04:41:43;;;;;;;40.30;28.83;;;15.10;99.90;;;;;;4919001;28;20621;-76
2022/06/06 04:44:35;;;;;;;44.50;31.38;;;15.00;99.90;;;;;;4985244;28;20066;-75
2022/06/06 04:47:12;;;;;;;44.50;31.35;;;14.90;99.90;;;;;;4985245;28;20057;-76
2022/06/06 04:49:39;;;;;;;40.03;30.42;;;15.00;99.90;;;;;;4985261;28;20050;-76
2022/06/06 04:52:07;;;;;;;42.03;29.67;;;14.90;99.90;;;;;;4987835;28;20034;-76
2022/06/06 04:54:36;;;;;;;41.30;31.52;;;14.90;99.90;;;;;;5002512;28;20057;-75
2022/06/06 04:57:03;;;;;;;50.47;31.40;;;15.00;99.90;;;;;;5003290;28;20045;-76
2022/06/06 04:59:31;;;;;;;40.33;30.00;;;15.00;99.90;;;;;;4997400;28;20484;-76
2022/06/06 05:02:02;;;;;;;45.58;33.03;;;15.00;99.90;;;;;;5003576;28;20606;-76
2022/06/06 05:04:29;;;;;;;42.60;31.85;;;15.10;99.90;;;;;;5003044;28;20061;-76
2022/06/06 05:07:23;;;;;;;42.63;31.50;;;15.10;99.90;;;;;;5002522;28;20148;-77
2022/06/06 05:10:13;;;;;;;51.72;33.55;;;15.10;99.90;;;;;;4987264;28;20101;-75
2022/06/06 05:13:12;;;;;;;42.25;32.30;;;15.10;99.90;;;;;;4981091;28;20042;-75
2022/06/06 05:15:56;;;;;;;53.33;34.05;;;15.20;99.90;;;;;;4919857;28;20046;-74
2022/06/06 05:18:45;;;;;;;58.05;35.42;;;15.20;99.90;;;;;;4982433;28;20046;-75
2022/06/06 05:21:49;;;;;;;48.38;34.25;;;15.20;99.90;;;;;;4982661;28;20050;-76
2022/06/06 05:24:45;;;;;;;52.30;35.03;;;15.20;99.90;;;;;;4996332;28;20081;-74
2022/06/06 05:27:12;;;;;;;50.45;32.67;;;15.20;99.90;;;;;;4998018;28;20163;-77
2022/06/06 05:29:49;;;;;;;49.35;32.97;;;15.10;99.90;;;;;;4998613;28;20061;-77
2022/06/06 05:32:32;;;;;;;48.42;33.10;;;15.00;99.90;;;;;;5002005;28;20045;-77
2022/06/06 05:35:16;;;;;;;45.58;33.03;;;15.00;99.90;;;;;;4985546;28;20053;-76
2022/06/06 05:37:52;;;;;;;48.40;32.58;;;15.00;99.90;;;;;;5002836;28;20112;-76
2022/06/06 05:40:41;;;;;;;47.25;33.17;;;15.00;99.90;;;;;;4991433;28;20460;-77
2022/06/06 05:43:43;;;;;;;51.17;32.47;;;15.10;99.90;;;;;;4966292;28;20113;-77
2022/06/06 05:46:37;;;;;;;46.35;31.70;;;15.10;99.90;;;;;;4983547;28;20650;-77
2022/06/06 05:49:10;;;;;;;48.65;33.38;;;15.30;99.90;;;;;;4963253;28;20141;-77
2022/06/06 05:51:56;;;;;;;47.05;32.63;;;15.30;99.90;;;;;;4984039;28;20045;-77
2022/06/06 05:54:41;;;;;;;49.35;33.92;;;15.50;99.90;;;;;;5000354;28;20673;-77
2022/06/06 05:57:38;;;;;;;46.90;33.03;;;15.50;99.90;;;;;;4969758;28;20054;-77
2022/06/06 06:00:25;;;;;;;48.55;33.75;;;15.60;99.90;;;;;;4991202;28;20081;-76
2022/06/06 06:03:16;;;;;;;46.53;32.95;;;15.80;99.90;;;;;;4983515;28;20116;-76
2022/06/06 06:06:11;;;;;;;41.35;33.38;;;16.00;99.90;;;;;;4965184;28;20128;-77
2022/06/06 06:09:10;;;;;;;41.40;33.70;;;16.20;99.90;;;;;;4983954;28;20069;-77
2022/06/06 06:11:55;;;;;;;37.70;32.67;;;16.50;99.90;;;;;;4975164;28;20105;-77
2022/06/06 06:14:25;;;;;;;;;;;16.90;99.90;;;;;;4983581;28;20424;-75
2022/06/06 06:16:58;;;;;;;37.92;33.70;;;17.10;99.90;;;;;;4982501;28;19926;-77
2022/06/06 06:19:31;;;;;;;38.38;34.17;;;17.40;99.90;;;;;;4982498;28;20088;-77
2022/06/06 06:22:03;;;;;;;37.38;32.97;;;17.60;99.90;;;;;;4987511;28;20042;-74
2022/06/06 06:24:33;;;;;;;37.40;33.65;;;17.70;99.90;;;;;;4999252;28;20100;-75
2022/06/06 06:27:03;;;;;;;34.42;31.25;;;17.70;99.90;;;;;;5000993;28;20034;-75
2022/06/06 06:29:30;;;;;;;34.75;31.55;;;17.90;99.90;;;;;;5002998;28;20200;-75
2022/06/06 06:32:17;;;;;;;33.15;29.70;;;17.90;99.90;;;;;;4992538;28;20209;-76
2022/06/06 06:35:01;;;;;;;33.08;30.17;;;17.70;99.90;;;;;;4982647;28;20085;-77
2022/06/06 06:37:53;;;;;;;36.00;32.40;;;17.70;99.90;;;;;;4982159;28;20077;-74
2022/06/06 06:40:32;;;;;;;33.63;30.40;;;17.70;99.90;;;;;;4964883;28;20061;-75
2022/06/06 06:43:18;;;;;;;32.28;29.52;;;17.80;99.90;;;;;;4978790;28;20047;-75
2022/06/06 06:46:26;;;;;;;31.17;28.10;;;17.60;99.90;;;;;;4979703;28;20043;-75
2022/06/06 06:49:06;;;;;;;30.55;27.73;;;17.50;99.90;;;;;;4984911;28;20082;-75
2022/06/06 06:52:03;;;;;;;29.88;27.35;;;17.40;99.90;;;;;;4985679;28;20057;-77
2022/06/06 06:54:57;;;;;;;29.15;26.83;;;17.60;99.90;;;;;;4966746;28;20046;-75
2022/06/06 06:58:02;;;;;;;29.17;26.70;;;17.50;99.90;;;;;;4994212;28;20046;-76
2022/06/06 07:00:37;;;;;;;26.80;24.80;;;17.30;99.90;;;;;;4993321;28;20058;-76
2022/06/06 07:09:40;;;;;;;22.65;21.25;;;17.40;99.90;;;;;;4964823;28;20470;-76
2022/06/06 07:12:22;;;;;;;23.50;21.95;;;17.60;99.90;;;;;;4964364;28;20058;-77
2022/06/06 07:15:00;;;;;;;24.92;23.23;;;17.60;99.90;;;;;;4965156;28;20576;-76
2022/06/06 07:17:31;;;;;;;26.30;24.40;;;17.50;99.90;;;;;;4980801;28;20189;-77
2022/06/06 07:20:10;;;;;;;26.05;24.23;;;17.60;99.90;;;;;;4985208;28;20517;-77
2022/06/06 07:25:38;;;;;;;25.65;23.85;;;18.00;99.90;;;;;;5001464;28;20066;-77
2022/06/06 07:28:07;;;;;;;25.85;24.05;;;18.20;99.90;;;;;;5000356;28;20081;-76
2022/06/06 07:30:57;;;;;;;25.98;24.25;;;18.10;99.90;;;;;;5000861;28;20346;-77
2022/06/06 07:33:38;;;;;;;26.58;24.55;;;18.00;99.90;;;;;;5006047;28;20112;-77
2022/06/06 07:36:14;;;;;;;26.77;24.75;;;18.00;99.90;;;;;;5001423;28;20093;-76
2022/06/06 07:38:48;;;;;;;26.90;25.00;;;18.00;99.90;;;;;;4986555;28;20050;-77
2022/06/06 07:41:39;;;;;;;27.15;25.25;;;17.90;99.90;;;;;;4968491;28;20049;-77
2022/06/06 07:44:37;;;;;;;26.40;24.50;;;17.90;99.90;;;;;;4968563;28;20125;-77
2022/06/06 07:47:18;;;;;;;25.02;23.48;;;17.90;99.90;;;;;;4986153;28;20046;-77
2022/06/06 07:50:00;;;;;;;24.52;22.85;;;17.80;99.90;;;;;;4986163;28;20100;-77
2022/06/06 07:52:27;;;;;;;25.30;23.30;;;18.30;99.90;;;;;;4994718;28;20221;-76
2022/06/06 07:55:18;;;;;;;24.98;23.38;;;18.80;99.90;;;;;;5010900;23;20161;-72
2022/06/06 07:57:55;;;;;;;23.13;21.83;;;19.30;99.90;;;;;;4988832;28;20443;-72
2022/06/06 08:00:25;;;;;;;22.23;21.00;;;19.30;99.90;;;;;;5001009;28;20050;-74
2022/06/06 08:02:57;;;;;;;24.65;23.23;;;18.80;99.90;;;;;;4987325;28;20092;-74
2022/06/06 08:05:58;;;;;;;24.52;23.02;;;18.60;99.90;;;;;;5003122;28;20112;-74
2022/06/06 08:08:50;;;;;;;24.85;23.45;;;18.40;99.90;;;;;;4985685;28;20480;-74
2022/06/06 08:11:36;;;;;;;26.52;24.63;;;18.30;99.90;;;;;;4984589;28;20093;-73
2022/06/06 08:14:25;;;;;;;27.73;26.00;;;18.40;99.90;;;;;;4985003;28;20058;-75
2022/06/06 08:17:22;;;;;;;26.05;24.45;;;18.60;99.90;;;;;;4984910;28;20927;-73
2022/06/06 08:19:55;;;;;;;26.50;24.70;;;18.60;99.90;;;;;;4966102;28;20394;-72
2022/06/06 08:22:24;;;;;;;26.45;24.60;;;18.60;99.90;;;;;;4977683;28;20057;-75
2022/06/06 08:24:58;;;;;;;28.20;26.25;;;18.50;99.90;;;;;;4987721;28;20030;-73
2022/06/06 08:27:32;;;;;;;29.88;27.52;;;18.40;99.90;;;;;;5001363;28;20039;-73
2022/06/06 08:29:59;;;;;;;29.52;27.42;;;18.40;99.90;;;;;;4991007;28;20042;-74
2022/06/06 08:32:27;;;;;;;28.83;27.00;;;18.40;99.90;;;;;;4982984;28;20069;-74
2022/06/06 08:34:54;;;;;;;29.45;27.42;;;18.30;99.90;;;;;;4989481;28;20579;-74
2022/06/06 08:37:46;;;;;;;30.02;28.02;;;18.20;99.90;;;;;;4986011;28;20131;-74
2022/06/06 08:40:31;;;;;;;28.25;26.40;;;18.10;99.90;;;;;;4980319;28;20052;-75
2022/06/06 08:43:03;;;;;;;;;;;18.10;99.90;;;;;;4985754;28;20054;-74
2022/06/06 08:46:11;;;;;;;27.83;25.92;;;18.10;99.90;;;;;;4985709;28;19980;-74
2022/06/06 08:49:10;;;;;;;26.92;25.33;;;18.40;99.90;;;;;;4983966;28;20042;-75
2022/06/06 08:51:52;;;;;;;26.85;25.15;;;18.60;99.90;;;;;;4986138;28;20050;-75
2022/06/06 08:54:19;;;;;;;27.42;25.73;;;18.80;99.90;;;;;;4980810;28;20255;-74
2022/06/06 08:56:46;;;;;;;25.92;24.33;;;19.00;99.90;;;;;;4998374;28;20141;-74
2022/06/06 08:59:31;;;;;;;26.80;25.20;;;19.40;99.90;;;;;;4993856;28;20168;-73
2022/06/06 09:01:58;;;;;;;;;;;19.60;99.90;;;;;;4966392;28;20110;-74
2022/06/06 09:05:03;;;;;;;25.73;24.20;;;19.80;99.90;;;;;;4964130;28;19930;-74
2022/06/06 09:07:58;;;;;;;23.47;22.03;;;20.30;99.90;;;;;;4965370;28;20390;-74
2022/06/06 09:10:31;;;;;;;23.75;22.45;;;20.20;99.90;;;;;;4964687;28;20054;-73
2022/06/06 09:13:21;;;;;;;23.60;22.30;;;20.40;99.90;;;;;;4997646;28;20053;-73
2022/06/06 09:15:54;;;;;;;23.15;21.67;;;20.60;99.90;;;;;;4997038;28;20038;-72
2022/06/06 09:18:43;;;;;;;21.60;20.35;;;20.30;99.90;;;;;;4996288;28;20046;-73
2022/06/06 09:21:30;;;;;;;22.80;21.40;;;20.30;99.90;;;;;;4984827;28;20054;-74
2022/06/06 09:24:16;;;;;;;21.58;20.35;;;19.80;99.90;;;;;;4996661;28;20077;-77
2022/06/06 09:26:51;;;;;;;22.98;21.58;;;19.60;99.90;;;;;;4985875;28;20047;-76
2022/06/06 09:29:51;;;;;;;22.45;21.25;;;19.80;99.90;;;;;;4995290;28;20057;-75
2022/06/06 09:32:25;;;;;;;23.92;22.48;;;20.10;99.90;;;;;;4964820;28;20077;-75
2022/06/06 09:35:19;;;;;;;21.40;20.20;;;20.60;99.90;;;;;;4966872;28;20556;-75
2022/06/06 09:38:09;;;;;;;21.98;20.67;;;20.80;99.90;;;;;;4966113;28;20058;-76
2022/06/06 09:40:42;;;;;;;22.15;20.80;;;20.50;99.90;;;;;;4964758;28;20500;-76
2022/06/06 09:43:23;;;;;;;23.63;22.23;;;20.00;99.90;;;;;;4968984;28;20039;-77
2022/06/06 09:46:09;;;;;;;22.50;21.30;;;19.90;99.90;;;;;;5001137;28;20046;-77
2022/06/06 09:49:08;;;;;;;21.90;20.80;;;20.20;99.90;;;;;;4996407;28;20094;-76
2022/06/06 09:51:56;;;;;;;22.02;20.92;;;20.50;99.90;;;;;;4943086;28;20050;-75
2022/06/06 10:00:53;;;;;;;;;;;20.90;99.90;;;;;;4991260;28;20628;-76
2022/06/06 10:03:25;;;;;;;21.45;20.35;;;20.90;99.90;;;;;;4991252;28;19929;-75
2022/06/06 10:06:14;;;;;;;21.90;20.80;;;21.10;99.90;;;;;;4988444;28;20085;-76
2022/06/06 10:09:08;;;;;;;22.00;20.90;;;21.60;99.90;;;;;;4985276;28;20053;-76
2022/06/06 10:11:59;;;;;;;19.35;18.30;;;21.80;99.90;;;;;;4991395;28;20053;-76
2022/06/06 10:14:48;;;;;;;22.52;21.33;;;21.20;99.90;;;;;;4983295;28;20124;-74
2022/06/06 10:17:33;;;;;;;18.98;17.77;;;21.00;99.90;;;;;;4993809;28;20069;-74
2022/06/06 10:20:04;;;;;;;19.60;18.60;;;20.90;99.90;;;;;;4986545;28;20121;-74
2022/06/06 10:22:52;;;;;;;19.85;18.80;;;20.60;99.90;;;;;;4983928;28;20070;-74
2022/06/06 10:25:22;;;;;;;24.48;22.95;;;20.20;99.90;;;;;;4979242;28;20046;-75
2022/06/06 10:28:01;;;;;;;20.52;19.42;;;20.10;99.90;;;;;;4978925;28;20042;-75
2022/06/06 10:31:22;;;;;;;22.25;21.05;;;20.80;99.90;;;;;;4980310;28;20054;-73
2022/06/06 10:34:12;;;;;;;20.08;18.80;;;21.20;99.90;;;;;;4940168;28;20047;-74
2022/06/06 10:36:59;;;;;;;20.25;19.05;;;21.20;99.90;;;;;;4981219;28;20108;-74
2022/06/06 10:39:45;;;;;;;19.77;18.58;;;21.10;99.90;;;;;;4985113;28;20468;-74
2022/06/06 10:42:53;;;;;;;19.48;18.38;;;20.60;99.90;;;;;;4984287;28;20054;-73
2022/06/06 10:45:25;;;;;;;19.80;18.70;;;20.50;99.90;;;;;;4963965;28;20944;-74
2022/06/06 10:48:10;;;;;;;24.58;23.17;;;20.40;99.90;;;;;;4981180;28;20065;-73
2022/06/06 10:51:42;;;;;;;18.45;17.45;;;20.40;99.90;;;;;;4963677;28;20050;-74
2022/06/06 10:54:27;;;;;;;18.50;17.50;;;20.70;99.90;;;;;;4929529;28;20046;-75
2022/06/06 10:57:05;;;;;;;;;;;20.70;99.90;;;;;;4971152;28;20042;-75
2022/06/06 10:59:57;;;;;;;22.98;21.77;;;20.60;99.90;;;;;;4991290;28;20594;-74
2022/06/06 11:02:39;;;;;;;19.17;18.17;;;20.60;99.90;;;;;;4986760;28;20224;-75
2022/06/06 11:05:35;;;;;;;19.42;18.42;;;20.50;99.90;;;;;;4965012;28;20087;-75
2022/06/06 11:08:12;;;;;;;21.83;20.55;;;20.70;99.90;;;;;;4978407;28;20551;-74
2022/06/06 11:10:45;;;;;;;20.08;19.08;;;21.00;99.90;;;;;;4983327;28;20077;-75
2022/06/06 11:13:45;;;;;;;23.45;22.35;;;21.70;99.90;;;;;;4983814;28;20477;-75
2022/06/06 11:16:44;;;;;;;19.02;18.02;;;21.80;99.90;;;;;;4984947;28;20046;-75
2022/06/06 11:19:20;;;;;;;19.40;18.30;;;21.60;99.90;;;;;;4985299;28;20069;-75
2022/06/06 11:22:09;;;;;;;20.23;19.20;;;21.20;99.90;;;;;;4987393;28;20057;-74
2022/06/06 11:24:53;;;;;;;19.85;18.92;;;20.90;99.90;;;;;;4983579;28;20408;-74
2022/06/06 11:27:23;;;;;;;19.63;18.73;;;20.40;99.90;;;;;;5002188;28;20059;-73
2022/06/06 11:30:03;;;;;;;19.55;18.40;;;20.20;99.90;;;;;;4996994;28;20042;-73
2022/06/06 11:33:08;;;;;;;19.88;18.98;;;20.30;99.90;;;;;;5002727;28;20130;-74
2022/06/06 11:36:09;;;;;;;19.70;18.70;;;19.90;99.90;;;;;;4961567;28;20082;-73
2022/06/06 11:38:57;;;;;;;18.63;17.73;;;19.90;99.90;;;;;;4967102;28;20529;-74
2022/06/06 11:41:39;;;;;;;18.45;17.50;;;20.10;99.90;;;;;;4983088;28;20105;-74
2022/06/06 11:44:40;;;;;;;19.10;18.00;;;20.10;99.90;;;;;;4984916;28;20062;-73
2022/06/06 11:47:39;;;;;;;19.15;17.98;;;19.90;99.90;;;;;;4984670;28;20587;-73
2022/06/06 11:50:31;;;;;;;19.80;18.70;;;19.80;99.90;;;;;;4984369;28;20271;-74
2022/06/06 11:53:31;;;;;;;19.85;18.85;;;19.70;99.90;;;;;;4987848;28;20049;-75
2022/06/06 11:56:13;;;;;;;19.98;19.05;;;19.60;99.90;;;;;;4995566;28;20052;-75
2022/06/06 11:58:43;;;;;;;19.90;18.80;;;19.60;99.90;;;;;;4994914;28;20073;-74
2022/06/06 12:01:28;;;;;;;20.77;19.77;;;19.50;99.90;;;;;;5002996;28;20264;-75
2022/06/06 12:04:04;;;;;;;20.35;19.23;;;19.40;99.90;;;;;;5003144;28;20496;-74
2022/06/06 12:06:33;;;;;;;18.92;18.00;;;19.30;99.90;;;;;;4986681;28;20248;-75
2022/06/06 12:09:48;;;;;;;20.92;19.63;;;19.10;99.90;;;;;;4985199;28;20050;-74
2022/06/06 12:12:33;;;;;;;20.98;19.88;;;19.20;99.90;;;;;;4952279;28;20054;-76
2022/06/06 12:15:09;;;;;;;20.00;19.08;;;19.30;99.90;;;;;;4983140;28;20096;-74
2022/06/06 12:17:55;;;;;;;21.63;20.10;;;19.30;99.90;;;;;;4965064;28;20070;-74
2022/06/06 12:20:39;;;;;;;19.67;18.58;;;19.20;99.90;;;;;;4977706;28;20108;-75
2022/06/06 12:23:16;;;;;;;20.27;19.17;;;19.10;99.90;;;;;;4969886;28;20058;-74
2022/06/06 12:25:58;;;;;;;20.33;19.42;;;19.10;99.90;;;;;;4990526;28;20301;-74
2022/06/06 12:28:41;;;;;;;20.90;19.90;;;19.10;99.90;;;;;;4994642;28;20108;-75
2022/06/06 12:31:42;;;;;;;18.25;17.33;;;19.20;99.90;;;;;;4979953;28;20612;-74
2022/06/06 12:34:24;;;;;;;18.75;17.95;;;19.10;99.90;;;;;;4978819;28;20556;-75
2022/06/06 12:36:54;;;;;;;17.13;16.10;;;18.60;99.90;;;;;;4982056;28;20058;-75
2022/06/06 12:39:25;;;;;;;17.05;16.35;;;18.10;99.90;;;;;;4974389;28;20729;-74
2022/06/06 12:42:45;;;;;;;16.45;15.70;;;17.60;99.90;;;;;;4982471;28;20112;-74
2022/06/06 12:45:37;;;;;;;21.92;20.80;;;17.20;99.90;;;;;;4969635;28;20050;-76
2022/06/06 12:48:38;;;;;;;21.00;19.70;;;16.40;99.90;;;;;;4984649;28;20061;-76
2022/06/06 12:51:30;;;;;;;18.42;17.52;;;15.70;99.90;;;;;;4983076;28;20043;-77
2022/06/06 12:54:30;;;;;;;16.85;15.95;;;15.10;99.90;;;;;;4985242;28;20634;-78
2022/06/06 12:57:00;;;;;;;14.70;14.05;;;15.00;99.90;;;;;;4984372;28;20041;-77
2022/06/06 13:00:04;;;;;;;10.02;9.60;;;15.10;99.90;;;;;;5003661;28;20634;-76
2022/06/06 13:02:57;;;;;;;11.32;10.73;;;15.60;99.90;;;;;;5001726;28;20552;-76
2022/06/06 13:05:46;;;;;;;13.95;13.35;;;15.80;99.90;;;;;;4989058;28;20062;-76
2022/06/06 13:08:40;;;;;;;10.65;10.15;;;15.90;99.90;;;;;;4984347;28;20081;-76
2022/06/06 13:11:30;;;;;;;13.63;12.93;;;16.20;99.90;;;;;;4982744;28;20053;-76
2022/06/06 13:14:24;;;;;;;15.57;14.88;;;16.50;99.90;;;;;;4983624;28;20104;-74
2022/06/06 13:17:08;;;;;;;17.20;16.45;;;16.60;99.90;;;;;;4981193;28;20472;-76
2022/06/06 13:19:58;;;;;;;20.15;19.25;;;16.70;99.90;;;;;;4962736;28;20148;-75
2022/06/06 13:22:34;;;;;;;21.10;20.00;;;16.80;99.90;;;;;;4974970;28;20055;-75
2022/06/06 13:25:33;;;;;;;22.35;21.35;;;16.70;99.90;;;;;;4988013;28;20551;-75
2022/06/06 13:28:20;;;;;;;21.00;20.10;;;16.50;99.90;;;;;;4979336;28;20073;-75
2022/06/06 13:30:47;;;;;;;21.67;20.58;;;16.30;99.90;;;;;;4982686;28;20050;-75
2022/06/06 13:33:33;;;;;;;21.45;20.40;;;16.10;99.90;;;;;;4982970;28;20058;-73
2022/06/06 13:36:24;;;;;;;20.83;19.83;;;16.10;99.90;;;;;;4981556;28;20141;-74
2022/06/06 13:39:37;;;;;;;21.42;20.35;;;16.00;99.90;;;;;;4976957;28;20054;-73
2022/06/06 13:42:10;;;;;;;21.45;20.55;;;16.00;99.90;;;;;;4965660;28;20050;-75
2022/06/06 13:44:49;;;;;;;20.83;19.92;;;16.00;99.90;;;;;;4981487;28;20907;-75
2022/06/06 13:47:37;;;;;;;20.58;19.67;;;16.00;99.90;;;;;;4969538;28;20042;-75
2022/06/06 13:50:12;;;;;;;20.83;19.92;;;16.10;99.90;;;;;;4981324;28;20069;-75
2022/06/06 13:53:05;;;;;;;21.15;20.05;;;16.20;99.90;;;;;;4980819;28;20477;-74
2022/06/06 13:55:35;;;;;;;21.55;20.50;;;16.40;99.90;;;;;;5036857;23;20106;-73
2022/06/06 13:58:38;;;;;;;24.10;22.90;;;16.70;99.90;;;;;;5046345;28;20434;-73
2022/06/06 14:01:34;;;;;;;22.17;21.08;;;17.00;99.90;;;;;;5037230;28;20095;-74
2022/06/06 14:04:11;;;;;;;22.05;20.85;;;17.60;99.90;;;;;;5036406;28;20048;-72
2022/06/06 14:07:15;;;;;;;20.23;19.33;;;18.00;99.90;;;;;;5020031;28;20126;-73